createdAt,value
2018-08-03T00:01:06.527Z,20.9
2018-08-03T00:06:09.230Z,20.8
2018-08-03T00:11:11.510Z,20.6
2018-08-03T00:16:13.911Z,20.6
2018-08-03T00:21:16.475Z,20.6
2018-08-03T00:26:18.991Z,20.6
2018-08-03T00:31:21.379Z,20.5
2018-08-03T00:36:23.825Z,20.5
2018-08-03T00:41:26.420Z,20.4
2018-08-03T00:46:28.615Z,20.3
2018-08-03T00:51:31.679Z,20.3
2018-08-03T00:56:33.561Z,20.2
2018-08-03T01:01:36.083Z,20.2
2018-08-03T01:06:38.702Z,20.2
2018-08-03T01:11:41.277Z,20.1
2018-08-03T01:16:43.396Z,20
2018-08-03T01:21:45.835Z,19.9
2018-08-03T01:26:48.296Z,19.8
2018-08-03T01:31:51.001Z,19.9
2018-08-03T01:36:53.265Z,19.7
2018-08-03T01:41:55.655Z,19.7
2018-08-03T01:46:58.317Z,19.8
2018-08-03T01:52:00.583Z,19.7
2018-08-03T01:57:03.167Z,19.5
2018-08-03T02:02:05.674Z,19.4
2018-08-03T02:07:08.008Z,19.3
2018-08-03T02:12:10.409Z,19.2
2018-08-03T02:17:13.081Z,19.1
2018-08-03T02:22:15.636Z,19
2018-08-03T02:27:17.823Z,18.9
2018-08-03T02:32:20.294Z,18.8
2018-08-03T02:37:22.769Z,18.7
2018-08-03T02:42:25.219Z,18.6
2018-08-03T02:47:27.825Z,18.5
2018-08-03T02:52:30.120Z,18.4
2018-08-03T02:57:32.560Z,18.3
2018-08-03T03:02:34.993Z,18.3
2018-08-03T03:07:37.684Z,18.2
2018-08-03T03:12:39.930Z,18.2
2018-08-03T03:17:42.392Z,18.1
2018-08-03T03:22:44.884Z,18.1
2018-08-03T03:27:47.331Z,18.1
2018-08-03T03:32:49.762Z,18.1
2018-08-03T03:37:52.343Z,18.2
2018-08-03T03:42:54.704Z,18.1
2018-08-03T03:47:57.111Z,18.1
2018-08-03T03:58:02.361Z,17.9
2018-08-03T04:03:04.780Z,18
2018-08-03T04:08:07.111Z,18
2018-08-03T04:13:09.439Z,18.1
2018-08-03T04:18:11.909Z,18.3
2018-08-03T04:23:15.020Z,18.4
2018-08-03T04:28:16.851Z,18.6
2018-08-03T04:33:20.297Z,18.7
2018-08-03T04:38:21.757Z,18.9
2018-08-03T04:43:24.304Z,19.2
2018-08-03T04:48:26.644Z,19.3
2018-08-03T04:53:29.095Z,19.4
2018-08-03T04:58:31.556Z,19.8
2018-08-03T05:08:36.483Z,20.7
2018-08-03T05:13:39.076Z,20.9
2018-08-03T05:18:42.179Z,21.3
2018-08-03T05:23:43.932Z,21.9
2018-08-03T05:28:46.414Z,24.3
2018-08-03T05:33:48.782Z,26.6
2018-08-03T05:38:51.224Z,28.7
2018-08-03T05:43:53.827Z,30.6
2018-08-03T05:48:56.188Z,32.5
2018-08-03T05:53:58.909Z,33.9
2018-08-03T05:59:01.067Z,34
2018-08-03T06:04:03.670Z,35.1
2018-08-03T06:09:06.026Z,36.3
2018-08-03T06:14:08.534Z,37.7
2018-08-03T06:19:11.160Z,38.5
2018-08-03T06:24:13.501Z,38.9
2018-08-03T06:29:16.023Z,39.5
2018-08-03T06:34:18.289Z,39.8
2018-08-03T06:44:23.243Z,40.8
2018-08-03T06:49:25.909Z,41.4
2018-08-03T06:54:28.209Z,41.5
2018-08-03T06:59:30.687Z,41.7
2018-08-03T07:04:33.238Z,42.5
2018-08-03T07:09:35.608Z,43.1
2018-08-03T07:14:38.038Z,43.4
2018-08-03T07:19:40.683Z,43.5
2018-08-03T07:24:42.898Z,43.6
2018-08-03T07:29:45.388Z,43.7
2018-08-03T07:34:47.867Z,42.8
2018-08-03T07:39:50.351Z,42.3
2018-08-03T07:44:53.092Z,41.5
2018-08-03T07:49:55.680Z,40.3
2018-08-03T08:00:00.180Z,39.4
2018-08-03T08:05:02.852Z,38
2018-08-03T08:10:05.048Z,36.2
2018-08-03T08:15:07.785Z,35.3
2018-08-03T08:20:10.559Z,33.5
2018-08-03T08:25:12.612Z,34.4
2018-08-03T08:30:15.032Z,36.2
2018-08-03T08:35:17.593Z,35.7
2018-08-03T08:40:19.806Z,34.8
2018-08-03T08:45:22.389Z,34.3
2018-08-03T08:50:24.787Z,36.1
2018-08-03T08:55:27.190Z,37.3
2018-08-03T09:00:29.656Z,37.2
2018-08-03T09:05:32.514Z,37
2018-08-03T09:10:34.565Z,36.4
2018-08-03T09:15:37.057Z,36.6
2018-08-03T09:25:42.071Z,35.7
2018-08-03T09:30:44.740Z,34.6
2018-08-03T09:35:46.921Z,33.2
2018-08-03T09:40:49.406Z,32.2
2018-08-03T09:45:51.810Z,31.6
2018-08-03T09:50:54.268Z,31.2
2018-08-03T09:55:56.848Z,31.1
2018-08-03T10:00:59.232Z,31.2
2018-08-03T10:06:01.691Z,31.4
2018-08-03T10:11:04.301Z,31.2
2018-08-03T10:16:06.568Z,31.3
2018-08-03T10:21:09.107Z,31.3
2018-08-03T10:26:11.778Z,31.4
2018-08-03T10:31:14.297Z,31.6
2018-08-03T10:36:16.497Z,31.6
2018-08-03T10:41:18.899Z,31
2018-08-03T10:46:21.376Z,31
2018-08-03T10:51:23.923Z,30.7
2018-08-03T10:56:26.334Z,30.8
2018-08-03T11:01:28.829Z,30.9
2018-08-03T11:06:31.227Z,31.3
2018-08-03T11:11:33.596Z,31.7
2018-08-03T11:16:36.351Z,31.6
2018-08-03T11:21:38.717Z,31.3
2018-08-03T11:26:40.993Z,31.1
2018-08-03T11:31:43.719Z,30.8
2018-08-03T11:36:46.148Z,30.8
2018-08-03T11:41:48.491Z,31
2018-08-03T11:46:51.113Z,31.6
2018-08-03T11:51:53.339Z,32
2018-08-03T11:56:55.749Z,32.5
2018-08-03T12:01:58.501Z,32.7
2018-08-03T12:07:00.672Z,32.6
2018-08-03T12:12:03.291Z,31.9
2018-08-03T12:17:05.818Z,31.2
2018-08-03T12:22:08.083Z,30.7
2018-08-03T12:27:10.625Z,30.4
2018-08-03T12:32:13.046Z,30.2
2018-08-03T12:37:16.045Z,30.2
2018-08-03T12:42:17.967Z,30.2
2018-08-03T12:47:20.580Z,30
2018-08-03T12:52:22.821Z,29.9
2018-08-03T12:57:25.601Z,29.7
2018-08-03T13:02:28.232Z,29.7
2018-08-03T13:07:30.579Z,29.9
2018-08-03T13:12:32.958Z,29.9
2018-08-03T13:17:35.347Z,30
2018-08-03T13:22:37.558Z,30.2
2018-08-03T13:27:40.233Z,30.3
2018-08-03T13:32:42.510Z,30.3
2018-08-03T13:37:45.172Z,30.3
2018-08-03T13:42:47.427Z,30.5
2018-08-03T13:47:49.922Z,30.6
2018-08-03T13:52:52.328Z,31
2018-08-03T13:57:54.995Z,31.2
2018-08-03T14:02:57.514Z,31.4
2018-08-03T14:08:00.125Z,31.5
2018-08-03T14:13:02.182Z,31.7
2018-08-03T14:18:04.763Z,31.7
2018-08-03T14:23:07.134Z,31.8
2018-08-03T14:28:10.103Z,31.9
2018-08-03T14:33:12.042Z,32
2018-08-03T14:38:14.730Z,32.1
2018-08-03T14:43:16.980Z,32.2
2018-08-03T14:48:19.468Z,32.3
2018-08-03T14:53:22.155Z,32.7
2018-08-03T14:58:24.300Z,33.3
2018-08-03T15:03:26.897Z,33.7
2018-08-03T15:08:29.270Z,33.6
2018-08-03T15:13:31.684Z,33.2
2018-08-03T15:18:34.165Z,32.7
2018-08-03T15:23:36.610Z,32.1
2018-08-03T15:28:39.184Z,31.7
2018-08-03T15:38:44.152Z,30.7
2018-08-03T15:43:46.464Z,30.7
2018-08-03T15:48:49.678Z,30.8
2018-08-03T15:53:51.391Z,30.8
2018-08-03T15:58:53.845Z,30.8
2018-08-03T16:03:56.492Z,30.8
2018-08-03T16:08:58.942Z,30.7
2018-08-03T16:14:01.399Z,30.7
2018-08-03T16:19:03.714Z,30.9
2018-08-03T16:24:06.308Z,30.9
2018-08-03T16:29:08.622Z,31
2018-08-03T16:34:11.033Z,31
2018-08-03T16:39:13.795Z,31
2018-08-03T16:44:16.163Z,30.9
2018-08-03T16:49:18.444Z,30.9
2018-08-03T16:54:21.109Z,30.8
2018-08-03T16:59:23.369Z,30.6
2018-08-03T17:04:25.857Z,30.6
2018-08-03T17:09:28.301Z,30.5
2018-08-03T17:14:30.693Z,30.4
2018-08-03T17:19:33.167Z,30.3
2018-08-03T17:24:35.646Z,30.3
2018-08-03T17:29:38.181Z,30.2
2018-08-03T17:34:40.534Z,30.3
2018-08-03T17:39:43.043Z,30.1
2018-08-03T17:44:45.465Z,30
2018-08-03T17:49:48.163Z,29.9
2018-08-03T17:54:50.626Z,29.7
2018-08-03T17:59:53.276Z,29.5
2018-08-03T18:04:55.295Z,29.1
2018-08-03T18:09:57.818Z,28.8
2018-08-03T18:15:00.261Z,28.6
2018-08-03T18:20:03.488Z,28.4
2018-08-03T18:25:05.146Z,28.1
2018-08-03T18:30:07.685Z,27.6
2018-08-03T18:40:12.787Z,27.2
2018-08-03T18:45:14.990Z,27
2018-08-03T18:50:17.585Z,26.7
2018-08-03T18:55:19.968Z,26.5
2018-08-03T19:00:22.996Z,26.2
2018-08-03T19:05:25.243Z,26
2018-08-03T19:10:27.368Z,25.8
2018-08-03T19:20:32.309Z,25.3
2018-08-03T19:25:34.781Z,25.1
2018-08-03T19:30:37.137Z,24.9
2018-08-03T19:35:39.566Z,24.8
2018-08-03T19:40:42.052Z,24.6
2018-08-03T19:45:44.609Z,24.5
2018-08-03T19:50:47.056Z,24.3
2018-08-03T19:55:49.460Z,24.2
2018-08-03T20:00:52.190Z,24.1
2018-08-03T20:05:54.319Z,23.9
2018-08-03T20:10:56.946Z,23.8
2018-08-03T20:15:59.278Z,23.6
2018-08-03T20:21:01.699Z,23.5
2018-08-03T20:26:04.229Z,23.4
2018-08-03T20:31:06.597Z,23.2
2018-08-03T20:36:09.063Z,23.2
2018-08-03T20:41:11.670Z,23.1
2018-08-03T20:46:14.024Z,23
2018-08-03T20:51:16.460Z,23
2018-08-03T20:56:18.931Z,22.8
2018-08-03T21:01:21.938Z,22.7
2018-08-03T21:06:24.085Z,22.6
2018-08-03T21:11:26.644Z,22.6
2018-08-03T21:16:28.728Z,22.4
2018-08-03T21:21:31.212Z,22.4
2018-08-03T21:26:34.074Z,22.4
2018-08-03T21:31:36.187Z,22.4
2018-08-03T21:36:38.606Z,22.3
2018-08-03T21:41:41.044Z,22.2
2018-08-03T21:46:43.534Z,22.1
2018-08-03T21:51:46.160Z,22.1
2018-08-03T21:56:48.495Z,22.1
2018-08-03T22:01:50.898Z,22
2018-08-03T22:06:53.698Z,21.8
2018-08-03T22:11:55.883Z,21.7
2018-08-03T22:16:58.239Z,21.6
2018-08-03T22:22:00.743Z,21.5
2018-08-03T22:27:03.231Z,21.4
2018-08-03T22:32:05.626Z,21.4
2018-08-03T22:37:08.091Z,21.2
2018-08-03T22:42:10.605Z,21.2
2018-08-03T22:47:13.357Z,21.2
2018-08-03T22:52:15.630Z,21.1
2018-08-03T22:57:18.479Z,21.1
2018-08-03T23:02:20.438Z,21.1
2018-08-03T23:07:22.905Z,21
2018-08-03T23:12:25.392Z,20.9
2018-08-03T23:17:28.010Z,20.8
2018-08-03T23:22:30.214Z,20.5
2018-08-03T23:27:32.670Z,20.5
2018-08-03T23:32:35.108Z,20.5
2018-08-03T23:37:37.594Z,20.4
2018-08-03T23:42:40.372Z,20.3
2018-08-03T23:47:42.512Z,20.2
2018-08-03T23:52:44.946Z,20.2
2018-08-03T23:57:47.562Z,20.1
